Time;durP1;ratioP1;P1;durP2;ratioP2;P2;SDS_P1;SDS_P2;PMS_P1;PMS_P2;Temp;Humidity;BMP_temperature;BMP_pressure;BME280_temperature;BME280_humidity;BME280_pressure;Samples;Min_cycle;Max_cycle;Signal;HPM_P1;HPM_P2
2022/12/21 08:14:09;;;;;;;21.55;15.13;;;;;;;11.46;35.98;94064.03;5059065;27;2086047;-36
2022/12/21 08:16:35;;;;;;;23.30;15.45;;;;;;;12.46;34.81;94075.28;5108237;28;20100;-36
2022/12/21 08:19:00;;;;;;;25.98;17.75;;;;;;;12.95;34.01;94073.09;5108027;28;20729;-36
2022/12/21 08:21:26;;;;;;;19.08;12.13;;;;;;;12.70;32.32;94075.59;5108191;28;20449;-35
2022/12/21 08:23:51;;;;;;;16.63;12.55;;;;;;;12.61;33.40;94067.06;5108179;28;20499;-35
2022/12/21 08:26:16;;;;;;;19.63;11.90;;;;;;;12.91;33.09;94062.38;5107684;28;20024;-35
2022/12/21 08:28:42;;;;;;;17.80;11.95;;;;;;;13.64;32.01;94064.38;5107811;28;20019;-35
2022/12/21 08:31:10;;;;;;;13.05;8.93;;;;;;;14.54;31.28;94048.97;5107665;28;20028;-35
2022/12/21 08:33:37;;;;;;;14.23;11.15;;;;;;;14.40;31.19;94045.66;5107594;28;20024;-35
2022/12/21 08:36:02;;;;;;;17.40;11.40;;;;;;;14.63;31.21;94031.69;5107692;28;20503;-35
2022/12/21 08:38:28;;;;;;;26.23;17.42;;;;;;;15.63;29.72;94033.41;5107525;28;20115;-35
2022/12/21 08:40:53;;;;;;;28.92;19.63;;;;;;;15.58;29.25;94031.59;5107639;28;20106;-35
2022/12/21 08:43:19;;;;;;;25.05;17.55;;;;;;;15.59;29.96;94025.44;5107427;28;20016;-35
2022/12/21 08:45:45;;;;;;;28.35;19.48;;;;;;;16.10;29.45;94029.66;5107784;28;20031;-35
2022/12/21 08:48:11;;;;;;;24.83;15.90;;;;;;;16.06;28.75;94018.94;5107403;28;20035;-36
2022/12/21 08:50:37;;;;;;;20.25;14.73;;;;;;;16.23;28.90;94018.22;5107393;28;20106;-35
2022/12/21 08:53:02;;;;;;;15.82;11.98;;;;;;;16.44;28.20;94019.28;5107554;28;20106;-35
2022/12/21 08:55:29;;;;;;;13.38;9.02;;;;;;;16.63;27.59;94011.13;5107530;28;20028;-35
2022/12/21 08:57:54;;;;;;;13.73;9.07;;;;;;;16.43;27.57;94006.69;5107612;28;20043;-35
2022/12/21 09:00:20;;;;;;;14.10;9.43;;;;;;;16.06;28.37;94005.00;5107416;28;20046;-35
2022/12/21 09:02:45;;;;;;;9.55;7.10;;;;;;;15.28;28.39;94004.69;5107413;28;20020;-35
2022/12/21 09:05:11;;;;;;;6.45;4.80;;;;;;;15.83;27.90;93999.63;5107358;28;20019;-35
2022/12/21 09:07:36;;;;;;;8.95;6.65;;;;;;;15.47;27.96;93988.25;5107312;28;20411;-35
2022/12/21 09:10:02;;;;;;;6.95;5.88;;;;;;;15.01;29.28;93989.81;5106999;28;20024;-35
2022/12/21 09:12:27;;;;;;;9.27;6.07;;;;;;;15.16;28.83;93982.13;5107103;28;20040;-35
2022/12/21 09:14:53;;;;;;;9.98;6.75;;;;;;;15.80;28.73;93977.78;5106805;28;20512;-35
2022/12/21 09:17:18;;;;;;;10.57;7.35;;;;;;;16.31;27.80;93974.28;5106892;28;20063;-35
2022/12/21 09:19:44;;;;;;;13.25;7.35;;;;;;;16.77;27.71;93961.31;5107212;28;20028;-35
2022/12/21 09:22:09;;;;;;;11.23;8.20;;;;;;;16.22;28.27;93961.75;5107065;28;20016;-35
2022/12/21 09:24:35;;;;;;;10.85;7.75;;;;;;;17.02;27.89;93947.25;5098290;28;20016;-35
2022/12/21 09:27:00;;;;;;;8.55;6.57;;;;;;;17.19;26.53;93947.19;5093184;28;20073;-35
2022/12/21 09:29:25;;;;;;;7.72;5.80;;;;;;;17.51;25.93;93935.00;5093272;28;20028;-35
2022/12/21 09:31:51;;;;;;;7.90;5.90;;;;;;;16.78;26.73;93942.53;5093280;28;20028;-35
2022/12/21 09:34:17;;;;;;;12.55;7.50;;;;;;;16.71;26.71;93935.75;5092947;28;20459;-35
2022/12/21 09:36:44;;;;;;;9.15;7.53;;;;;;;17.07;26.12;93944.19;5092961;28;20545;-35
2022/12/21 09:39:09;;;;;;;8.73;6.03;;;;;;;17.79;25.63;93937.88;5093254;28;20107;-35
2022/12/21 09:41:45;;;;;;;5.25;3.95;;;;;;;17.84;25.11;93944.50;5093153;28;20407;-35
2022/12/21 09:44:40;;;;;;;11.80;4.47;;;;;;;18.16;25.98;93944.84;5075072;28;20028;-35
2022/12/21 09:47:11;;;;;;;5.32;4.50;;;;;;;17.56;26.35;93939.56;5074803;28;20552;-35
2022/12/21 09:49:42;;;;;;;5.68;4.55;;;;;;;17.81;26.19;93932.44;5074977;28;20052;-35
2022/12/21 09:52:16;;;;;;;7.88;5.93;;;;;;;17.86;25.99;93925.09;5074602;28;20511;-35
2022/12/21 09:54:47;;;;;;;7.03;4.93;;;;;;;18.56;25.16;93921.19;5074932;28;20044;-35
2022/12/21 09:57:13;;;;;;;5.90;4.05;;;;;;;18.50;24.88;93915.88;5074911;28;20030;-35
2022/12/21 09:59:39;;;;;;;6.38;5.22;;;;;;;18.09;25.13;93905.84;5092431;28;20024;-35
2022/12/21 10:02:35;;;;;;;7.78;5.63;;;;;;;18.68;25.29;93910.84;5092481;28;20020;-35
2022/12/21 10:05:08;;;;;;;7.78;4.15;;;;;;;16.94;25.56;93902.69;5092519;28;20043;-35
2022/12/21 10:07:54;;;;;;;5.82;4.15;;;;;;;17.12;26.43;93900.59;5074363;28;20024;-34
2022/12/21 10:10:52;;;;;;;10.57;6.28;;;;;;;17.17;26.72;93889.13;5092204;28;20035;-35
2022/12/21 10:13:29;;;;;;;6.47;5.10;;;;;;;17.93;26.12;93891.41;5051059;28;20052;-35
2022/12/21 10:16:03;;;;;;;6.88;4.65;;;;;;;17.72;25.67;93894.03;5092227;28;20441;-35
2022/12/21 10:18:56;;;;;;;8.00;5.05;;;;;;;18.01;25.65;93882.91;5092088;28;20030;-35
2022/12/21 10:21:43;;;;;;;5.80;4.78;;;;;;;17.84;25.50;93881.00;5074128;28;20549;-35
2022/12/21 10:24:29;;;;;;;8.43;6.05;;;;;;;17.24;27.65;93884.75;5092332;28;20024;-35
2022/12/21 10:26:59;;;;;;;6.30;4.90;;;;;;;16.79;28.42;93872.25;5071981;28;20028;-35
2022/12/21 10:29:32;;;;;;;7.68;4.97;;;;;;;17.48;26.49;93878.22;5091816;28;20062;-35
2022/12/21 10:31:59;;;;;;;4.88;4.03;;;;;;;17.28;26.17;93873.94;5074100;28;20119;-35
2022/12/21 10:34:31;;;;;;;7.32;4.25;;;;;;;17.06;25.73;93872.22;5073971;28;20102;-35
2022/12/21 10:37:02;;;;;;;5.95;4.00;;;;;;;16.92;26.74;93871.13;5091085;28;20120;-35
2022/12/21 10:39:29;;;;;;;6.25;4.82;;;;;;;17.17;27.78;93863.31;5092072;28;20024;-35
2022/12/21 10:42:02;;;;;;;5.95;4.78;;;;;;;17.21;27.02;93861.56;5073744;28;20028;-35
2022/12/21 10:44:28;;;;;;;5.30;4.38;;;;;;;17.40;28.12;93852.50;5091915;28;20031;-35
2022/12/21 10:46:54;;;;;;;7.20;5.50;;;;;;;17.28;27.27;93859.97;5091907;28;20415;-35
2022/12/21 10:49:33;;;;;;;6.90;5.05;;;;;;;17.21;26.31;93844.09;5091509;28;20060;-35
2022/12/21 10:51:59;;;;;;;8.05;5.00;;;;;;;17.03;26.16;93848.28;5073683;28;20036;-35
2022/12/21 10:54:27;;;;;;;7.55;5.30;;;;;;;16.80;26.57;93845.09;5073223;28;20561;-35
2022/12/21 10:56:52;;;;;;;21.05;11.93;;;;;;;16.92;27.34;93852.34;5091457;28;20024;-35
2022/12/21 10:59:30;;;;;;;12.35;8.07;;;;;;;16.89;27.99;93842.34;5073215;28;20035;-35
2022/12/21 11:01:56;;;;;;;10.93;5.30;;;;;;;17.19;27.33;93836.31;5073049;28;20052;-35
2022/12/21 11:04:21;;;;;;;7.05;5.03;;;;;;;17.32;27.71;93838.69;5091184;28;20024;-35
2022/12/21 11:06:56;;;;;;;7.30;5.50;;;;;;;17.32;27.14;93843.53;5091243;28;20099;-35
2022/12/21 11:09:33;;;;;;;7.18;5.38;;;;;;;17.17;26.47;93835.41;5091181;28;20028;-35
2022/12/21 11:12:19;;;;;;;7.43;5.70;;;;;;;17.39;26.79;93839.84;5091367;28;20020;-35
2022/12/21 11:14:44;;;;;;;7.75;5.85;;;;;;;17.65;26.57;93829.97;5091107;28;20040;-35
2022/12/21 11:17:17;;;;;;;8.27;6.03;;;;;;;17.62;26.28;93823.47;5091010;28;20542;-35
